Time;durP1;ratioP1;P1;durP2;ratioP2;P2;SDS_P1;SDS_P2;PMS_P1;PMS_P2;Temp;Humidity;BMP_temperature;BMP_pressure;BME280_temperature;BME280_humidity;BME280_pressure;Samples;Min_cycle;Max_cycle;Signal;HPM_P1;HPM_P2
2021/07/12 00:00:25;;;;;;;;;;;;;;;22.93;47.15;100492.34;5078928;28;771;-39
2021/07/12 00:02:52;;;;;;;;;;;;;;;21.04;51.86;100485.03;5078649;28;1098;-40
2021/07/12 00:05:18;;;;;;;;;;;;;;;23.23;47.92;100499.00;5078046;28;943;-35
2021/07/12 00:07:43;;;;;;;;;;;;;;;24.03;47.35;100487.91;5078723;28;798;-37
2021/07/12 00:10:10;;;;;;;;;;;;;;;24.76;44.23;100491.66;5077983;28;1913;-35
2021/07/12 00:12:35;;;;;;;;;;;;;;;23.96;43.61;100486.88;5078174;28;832;-35
2021/07/12 00:15:00;;;;;;;;;;;;;;;21.22;51.56;100487.75;5078355;28;779;-36
2021/07/12 00:17:25;;;;;;;;;;;;;;;22.75;49.58;100487.91;5078138;28;772;-40
2021/07/12 00:19:51;;;;;;;;;;;;;;;24.27;45.23;100478.19;5077968;28;1006;-36
2021/07/12 00:22:16;;;;;;;;;;;;;;;22.67;47.60;100477.97;5078579;28;810;-39
2021/07/12 00:24:41;;;;;;;;;;;;;;;21.07;52.24;100475.91;5077990;28;846;-36
2021/07/12 00:27:07;;;;;;;;;;;;;;;23.47;46.99;100483.97;5078032;28;860;-41
2021/07/12 00:29:32;;;;;;;;;;;;;;;24.17;47.30;100481.00;5078057;28;1909;-40
2021/07/12 00:31:57;;;;;;;;;;;;;;;21.51;50.46;100478.72;5077701;28;882;-36
2021/07/12 00:34:22;;;;;;;;;;;;;;;22.50;50.14;100479.69;5077605;28;1973;-40
2021/07/12 00:36:48;;;;;;;;;;;;;;;24.06;45.31;100470.59;5077812;28;815;-40
2021/07/12 00:39:13;;;;;;;;;;;;;;;22.84;47.22;100472.69;5076819;28;849;-36
2021/07/12 00:41:38;;;;;;;;;;;;;;;21.30;52.47;100465.63;5078396;28;848;-36
2021/07/12 00:44:04;;;;;;;;;;;;;;;23.58;46.89;100464.03;5078043;28;764;-35
2021/07/12 00:46:29;;;;;;;;;;;;;;;24.07;47.40;100456.97;5077717;28;740;-34
2021/07/12 00:48:54;;;;;;;;;;;;;;;21.34;51.31;100456.28;5077177;28;1909;-36
2021/07/12 00:51:21;;;;;;;;;;;;;;;22.72;50.08;100469.47;5077645;28;869;-39
2021/07/12 00:53:47;;;;;;;;;;;;;;;24.22;45.47;100467.09;5077153;28;807;-33
2021/07/12 00:56:12;;;;;;;;;;;;;;;22.31;48.55;100470.00;5077959;28;1020;-36
2021/07/12 00:58:37;;;;;;;;;;;;;;;21.02;52.66;100466.47;5077583;28;844;-38
2021/07/12 01:01:03;;;;;;;;;;;;;;;23.37;47.38;100464.50;5059125;28;855;-41
2021/07/12 01:03:28;;;;;;;;;;;;;;;24.01;47.44;100473.78;5077218;28;1033;-35
2021/07/12 01:05:54;;;;;;;;;;;;;;;24.85;44.01;100476.31;5077212;28;1083;-35
2021/07/12 01:08:19;;;;;;;;;;;;;;;22.68;47.55;100473.44;5077011;28;1921;-33
2021/07/12 01:10:46;;;;;;;;;;;;;;;21.09;51.94;100477.41;5077238;28;884;-36
2021/07/12 01:13:24;;;;;;;;;;;;;;;23.54;47.14;100486.03;5059268;28;855;-36
2021/07/12 01:16:08;;;;;;;;;;;;;;;24.11;47.12;100476.28;5076731;28;844;-34
2021/07/12 01:18:44;;;;;;;;;;;;;;;24.93;44.36;100474.47;5076676;28;975;-36
2021/07/12 01:21:29;;;;;;;;;;;;;;;21.91;49.72;100473.06;5058934;28;847;-40
2021/07/12 01:23:55;;;;;;;;;;;;;;;22.02;52.32;100467.47;5076611;28;827;-40
2021/07/12 01:26:39;;;;;;;;;;;;;;;24.02;45.80;100474.63;5076908;28;883;-40
2021/07/12 01:29:22;;;;;;;;;;;;;;;22.69;47.50;100469.78;5076876;28;1926;-37
2021/07/12 01:32:00;;;;;;;;;;;;;;;22.20;51.32;100463.94;5076473;28;910;-35
2021/07/12 01:35:01;;;;;;;;;;;;;;;24.06;45.79;100465.22;5076738;28;970;-36
2021/07/12 01:37:31;;;;;;;;;;;;;;;22.30;48.14;100462.97;5015257;28;1256;-37
2021/07/12 01:40:03;;;;;;;;;;;;;;;22.13;51.44;100470.91;5066132;28;1007;-41
2021/07/12 01:42:30;;;;;;;;;;;;;;;23.91;45.67;100465.91;5076263;28;847;-35
2021/07/12 01:45:11;;;;;;;;;;;;;;;24.57;45.05;100475.72;5076398;28;787;-36
2021/07/12 01:47:36;;;;;;;;;;;;;;;24.74;45.80;100467.59;5058947;28;800;-39
2021/07/12 01:50:04;;;;;;;;;;;;;;;21.71;50.30;100462.50;5076347;28;1901;-40
2021/07/12 01:52:43;;;;;;;;;;;;;;;21.59;52.94;100466.38;5058454;28;792;-38
2021/07/12 01:55:15;;;;;;;;;;;;;;;23.79;46.43;100469.94;5058694;28;1115;-34
2021/07/12 01:57:43;;;;;;;;;;;;;;;24.34;43.79;100475.63;5076354;28;815;-36
2021/07/12 02:00:10;;;;;;;;;;;;;;;21.85;51.33;100469.19;5058474;28;856;-38
2021/07/12 02:02:35;;;;;;;;;;;;;;;23.49;49.69;100470.38;5076208;28;796;-46
2021/07/12 02:05:03;;;;;;;;;;;;;;;23.92;50.28;100478.31;5058206;28;1311;-48
2021/07/12 02:07:28;;;;;;;;;;;;;;;24.25;49.79;100477.50;5058730;28;815;-48
2021/07/12 02:09:53;;;;;;;;;;;;;;;23.96;48.82;100465.38;5075945;28;1911;-45
2021/07/12 02:12:18;;;;;;;;;;;;;;;23.49;50.02;100467.72;5058789;28;893;-41
2021/07/12 02:14:44;;;;;;;;;;;;;;;23.07;50.83;100464.88;5076297;28;803;-40
2021/07/12 02:17:09;;;;;;;;;;;;;;;23.11;50.54;100468.09;5058422;28;803;-45
2021/07/12 02:19:34;;;;;;;;;;;;;;;23.11;51.71;100476.13;5075965;28;966;-43
2021/07/12 02:22:00;;;;;;;;;;;;;;;24.37;50.71;100471.75;5057876;28;796;-40
2021/07/12 02:24:25;;;;;;;;;;;;;;;24.73;50.80;100475.84;5076311;28;788;-40
2021/07/12 02:26:50;;;;;;;;;;;;;;;23.83;50.58;100476.66;5076764;28;784;-43
2021/07/12 02:29:16;;;;;;;;;;;;;;;22.52;51.94;100485.75;5075886;28;1967;-38
2021/07/12 02:31:41;;;;;;;;;;;;;;;23.64;51.90;100478.63;5058176;28;756;-42
2021/07/12 02:34:06;;;;;;;;;;;;;;;24.37;51.28;100482.53;5075971;28;1007;-35
2021/07/12 02:36:32;;;;;;;;;;;;;;;21.58;53.78;100476.28;5057869;28;816;-43
2021/07/12 02:38:57;;;;;;;;;;;;;;;23.26;52.08;100484.41;5076204;28;756;-33
2021/07/12 02:41:22;;;;;;;;;;;;;;;24.23;50.25;100482.19;5057969;28;831;-35
2021/07/12 02:43:48;;;;;;;;;;;;;;;24.78;47.96;100481.56;5075921;28;788;-34
2021/07/12 02:46:13;;;;;;;;;;;;;;;24.70;49.69;100483.28;5058317;28;835;-41
2021/07/12 02:48:39;;;;;;;;;;;;;;;21.04;55.73;100483.22;5057251;28;1905;-33
2021/07/12 02:51:04;;;;;;;;;;;;;;;23.60;50.67;100488.03;5075851;28;814;-33
2021/07/12 02:53:30;;;;;;;;;;;;;;;24.28;50.33;100482.53;5057928;28;749;-42
2021/07/12 02:55:56;;;;;;;;;;;;;;;21.14;54.70;100476.97;5076048;28;1264;-30
2021/07/12 02:58:21;;;;;;;;;;;;;;;23.09;52.05;100476.31;5057759;28;1014;-42
2021/07/12 03:00:47;;;;;;;;;;;;;;;24.32;49.54;100477.66;5078940;28;812;-43
2021/07/12 03:03:12;;;;;;;;;;;;;;;22.07;52.31;100475.03;5079310;28;1503;-43
2021/07/12 03:05:37;;;;;;;;;;;;;;;23.27;49.27;100485.25;5079212;28;923;-40
2021/07/12 03:08:05;;;;;;;;;;;;;;;23.42;50.55;100489.00;5079802;28;1967;-43
2021/07/12 03:10:30;;;;;;;;;;;;;;;24.51;47.76;100480.97;5079713;28;774;-42
2021/07/12 03:12:57;;;;;;;;;;;;;;;24.83;49.59;100480.03;5094597;28;826;-34
2021/07/12 03:15:28;;;;;;;;;;;;;;;25.37;47.82;100484.84;5095110;28;823;-42
2021/07/12 03:17:53;;;;;;;;;;;;;;;24.37;49.43;100490.59;5079682;28;855;-42
2021/07/12 03:20:19;;;;;;;;;;;;;;;23.24;53.18;100484.56;5078947;28;951;-38
2021/07/12 03:22:52;;;;;;;;;;;;;;;23.85;53.33;100486.22;5062653;28;826;-38
2021/07/12 03:25:19;;;;;;;;;;;;;;;24.54;52.23;100480.63;5059537;28;776;-37
2021/07/12 03:27:44;;;;;;;;;;;;;;;24.38;50.23;100474.28;5059058;28;824;-37
2021/07/12 03:30:11;;;;;;;;;;;;;;;23.62;52.48;100486.03;5041174;28;1984;-41
2021/07/12 03:32:36;;;;;;;;;;;;;;;23.53;52.90;100476.28;5059222;28;823;-39
2021/07/12 03:35:01;;;;;;;;;;;;;;;23.47;52.70;100485.84;5054803;28;1010;-35
2021/07/12 03:37:27;;;;;;;;;;;;;;;23.17;54.08;100483.53;5061202;28;784;-34
2021/07/12 03:39:52;;;;;;;;;;;;;;;23.59;51.96;100483.66;5078842;28;719;-41
2021/07/12 03:42:17;;;;;;;;;;;;;;;22.97;54.41;100478.44;5061112;28;958;-37
2021/07/12 03:44:43;;;;;;;;;;;;;;;23.03;55.68;100482.31;5061078;28;767;-42
2021/07/12 03:47:08;;;;;;;;;;;;;;;23.86;54.95;100484.38;5061485;28;742;-38
2021/07/12 03:49:33;;;;;;;;;;;;;;;24.21;54.36;100479.69;5060169;28;1906;-39
2021/07/12 03:51:59;;;;;;;;;;;;;;;24.43;53.81;100477.28;5060569;28;1250;-35
2021/07/12 03:54:24;;;;;;;;;;;;;;;23.50;54.20;100474.78;5078686;28;907;-36
2021/07/12 03:56:49;;;;;;;;;;;;;;;22.94;54.93;100472.59;5078766;28;1255;-41
2021/07/12 03:59:15;;;;;;;;;;;;;;;22.89;54.40;100475.72;5078596;28;787;-39
2021/07/12 04:01:40;;;;;;;;;;;;;;;22.97;53.71;100475.75;5078659;28;811;-42
2021/07/12 04:04:05;;;;;;;;;;;;;;;22.20;56.04;100476.47;5078163;28;967;-40
2021/07/12 04:06:30;;;;;;;;;;;;;;;23.51;55.50;100479.13;5078359;28;866;-44
2021/07/12 04:08:57;;;;;;;;;;;;;;;24.46;54.37;100476.09;5078274;28;1906;-40
2021/07/12 04:11:29;;;;;;;;;;;;;;;23.07;53.74;100474.81;5077610;28;827;-43
2021/07/12 04:13:54;;;;;;;;;;;;;;;21.97;58.49;100480.50;5077708;28;879;-35
2021/07/12 04:16:19;;;;;;;;;;;;;;;23.18;58.41;100477.19;5078539;28;799;-37
2021/07/12 04:18:45;;;;;;;;;;;;;;;24.24;55.97;100480.38;5077775;28;963;-40
2021/07/12 04:21:10;;;;;;;;;;;;;;;24.50;52.62;100479.28;5077843;28;574;-42
2021/07/12 04:23:36;;;;;;;;;;;;;;;22.85;56.25;100488.63;5060038;28;836;-35
2021/07/12 04:26:01;;;;;;;;;;;;;;;22.63;57.04;100484.66;5078451;28;740;-34
2021/07/12 04:28:26;;;;;;;;;;;;;;;21.81;57.91;100488.38;5077488;28;1890;-41
2021/07/12 04:30:52;;;;;;;;;;;;;;;23.25;56.49;100490.78;5077895;28;752;-42
2021/07/12 04:33:17;;;;;;;;;;;;;;;23.55;52.11;100488.53;5077759;28;848;-40
2021/07/12 04:35:42;;;;;;;;;;;;;;;21.34;58.52;100477.69;5077281;28;927;-34
2021/07/12 04:38:07;;;;;;;;;;;;;;;21.95;59.49;100487.84;5078151;28;832;-42
2021/07/12 04:40:34;;;;;;;;;;;;;;;23.98;53.13;100484.88;5078078;28;772;-42
2021/07/12 04:42:59;;;;;;;;;;;;;;;21.55;58.13;100492.66;5077332;28;775;-37
2021/07/12 04:45:27;;;;;;;;;;;;;;;21.02;59.18;100490.53;5078148;28;799;-41
2021/07/12 04:47:52;;;;;;;;;;;;;;;20.36;61.40;100487.78;5077625;28;804;-35
2021/07/12 04:50:17;;;;;;;;;;;;;;;20.52;60.64;100491.69;5075668;28;1898;-38
2021/07/12 04:52:43;;;;;;;;;;;;;;;20.42;61.52;100492.53;5077963;28;767;-34
2021/07/12 04:55:08;;;;;;;;;;;;;;;23.21;55.31;100494.78;5077390;28;1195;-34
2021/07/12 04:57:34;;;;;;;;;;;;;;;24.21;54.74;100493.13;5076773;28;759;-41
2021/07/12 05:00:01;;;;;;;;;;;;;;;24.48;55.34;100498.28;5077571;28;856;-39
2021/07/12 05:02:26;;;;;;;;;;;;;;;24.09;55.65;100503.34;5077568;28;946;-43
2021/07/12 05:04:52;;;;;;;;;;;;;;;24.99;53.28;100493.63;5076142;28;970;-33
2021/07/12 05:07:17;;;;;;;;;;;;;;;25.59;51.73;100498.53;5077545;28;768;-37
2021/07/12 05:09:42;;;;;;;;;;;;;;;25.80;51.25;100498.75;5077097;28;1914;-37
2021/07/12 05:12:11;;;;;;;;;;;;;;;26.04;50.67;100498.72;5076763;28;824;-37
2021/07/12 05:14:37;;;;;;;;;;;;;;;26.08;50.46;100500.00;5076943;28;855;-38
2021/07/12 05:17:03;;;;;;;;;;;;;;;26.31;49.55;100496.41;5058634;28;1089;-43
2021/07/12 05:19:28;;;;;;;;;;;;;;;26.39;49.24;100493.69;5076496;28;1017;-43
2021/07/12 05:21:53;;;;;;;;;;;;;;;26.56;48.76;100498.91;5076606;28;831;-39
2021/07/12 05:24:19;;;;;;;;;;;;;;;26.65;48.52;100505.06;5076905;28;787;-36
2021/07/12 05:26:44;;;;;;;;;;;;;;;26.80;48.50;100504.19;5076808;28;787;-43
2021/07/12 05:29:10;;;;;;;;;;;;;;;26.94;48.18;100503.38;5077097;28;1960;-36
2021/07/12 05:31:35;;;;;;;;;;;;;;;27.05;47.99;100495.84;5076952;28;843;-36
2021/07/12 05:34:00;;;;;;;;;;;;;;;27.22;47.90;100508.09;5076470;28;1010;-32
2021/07/12 05:36:25;;;;;;;;;;;;;;;27.30;47.59;100511.69;5076552;28;823;-38
2021/07/12 05:38:51;;;;;;;;;;;;;;;27.38;47.39;100504.31;5076645;28;859;-36
2021/07/12 05:41:16;;;;;;;;;;;;;;;27.37;47.67;100513.47;5077045;28;775;-33
2021/07/12 05:43:41;;;;;;;;;;;;;;;27.37;47.45;100508.06;5076579;28;851;-38
2021/07/12 05:46:06;;;;;;;;;;;;;;;27.36;47.47;100510.97;5076534;28;768;-37
2021/07/12 05:48:32;;;;;;;;;;;;;;;27.38;47.12;100517.84;5075824;28;1906;-35
2021/07/12 05:50:57;;;;;;;;;;;;;;;27.09;45.78;100516.84;5075717;28;788;-39
2021/07/12 05:53:23;;;;;;;;;;;;;;;27.14;45.74;100517.13;5076126;28;867;-40
2021/07/12 05:55:48;;;;;;;;;;;;;;;27.29;45.85;100515.44;5075828;28;1012;-42
2021/07/12 05:58:13;;;;;;;;;;;;;;;27.38;45.71;100522.38;5075089;28;517;-39
2021/07/12 06:00:38;;;;;;;;;;;;;;;27.53;45.67;100526.94;5076055;28;740;-36
2021/07/12 06:03:04;;;;;;;;;;;;;;;27.56;46.10;100524.66;5076751;28;772;-42
2021/07/12 06:05:29;;;;;;;;;;;;;;;27.62;45.91;100526.63;5075306;28;1022;-36
2021/07/12 06:07:54;;;;;;;;;;;;;;;27.70;46.02;100522.97;5076500;28;898;-41
2021/07/12 06:10:20;;;;;;;;;;;;;;;27.82;45.75;100528.72;5076316;28;1906;-35
2021/07/12 06:12:45;;;;;;;;;;;;;;;27.91;45.89;100525.88;5076069;28;811;-41
2021/07/12 06:15:10;;;;;;;;;;;;;;;27.88;45.92;100527.09;5076331;28;733;-38
2021/07/12 06:17:36;;;;;;;;;;;;;;;27.84;46.32;100521.22;5076432;28;764;-38
2021/07/12 06:20:02;;;;;;;;;;;;;;;28.03;46.16;100520.78;5074790;28;1022;-38
2021/07/12 06:22:28;;;;;;;;;;;;;;;28.06;46.37;100529.31;5075526;28;1273;-41
2021/07/12 06:24:54;;;;;;;;;;;;;;;28.15;46.58;100521.91;5076055;28;824;-33
2021/07/12 06:27:19;;;;;;;;;;;;;;;28.18;46.43;100515.25;5075156;28;1035;-35
2021/07/12 06:29:44;;;;;;;;;;;;;;;28.18;46.33;100520.66;5076520;28;1947;-38
2021/07/12 06:32:09;;;;;;;;;;;;;;;28.27;46.15;100522.22;5076050;28;1289;-36
2021/07/12 06:34:35;;;;;;;;;;;;;;;28.38;46.32;100522.75;5077067;28;982;-39
2021/07/12 06:37:00;;;;;;;;;;;;;;;28.40;46.01;100523.38;5080183;28;823;-37
2021/07/12 06:39:25;;;;;;;;;;;;;;;28.38;46.13;100528.97;5079837;28;780;-39
2021/07/12 06:41:51;;;;;;;;;;;;;;;28.43;45.98;100525.66;5079681;28;1033;-37
2021/07/12 06:44:16;;;;;;;;;;;;;;;28.56;45.92;100528.47;5080335;28;823;-41
2021/07/12 06:46:41;;;;;;;;;;;;;;;28.68;45.75;100526.06;5079721;28;812;-35
2021/07/12 06:49:06;;;;;;;;;;;;;;;28.73;45.67;100525.44;5079314;28;1894;-36
2021/07/12 06:51:32;;;;;;;;;;;;;;;28.72;45.68;100531.91;5079858;28;842;-39
2021/07/12 06:53:58;;;;;;;;;;;;;;;28.71;45.56;100525.66;5079807;28;1004;-39
2021/07/12 06:56:23;;;;;;;;;;;;;;;28.47;45.76;100526.97;5079532;28;1093;-39
2021/07/12 06:58:48;;;;;;;;;;;;;;;28.34;46.05;100523.13;5080069;28;775;-43
2021/07/12 07:01:13;;;;;;;;;;;;;;;28.40;45.71;100526.91;5079882;28;791;-39
2021/07/12 07:03:39;;;;;;;;;;;;;;;28.43;45.59;100533.78;5079239;28;978;-36
2021/07/12 07:06:04;;;;;;;;;;;;;;;28.50;45.60;100531.97;5079404;28;1159;-41
2021/07/12 07:08:30;;;;;;;;;;;;;;;28.48;45.42;100532.19;5079580;28;1914;-42
2021/07/12 07:10:55;;;;;;;;;;;;;;;28.48;45.15;100537.59;5079189;28;542;-36
2021/07/12 07:13:20;;;;;;;;;;;;;;;28.47;45.52;100532.38;5079505;28;747;-35
2021/07/12 07:15:45;;;;;;;;;;;;;;;28.48;45.20;100531.34;5079570;28;756;-37
2021/07/12 07:18:11;;;;;;;;;;;;;;;28.54;44.88;100538.69;5079082;28;806;-39
2021/07/12 07:20:37;;;;;;;;;;;;;;;28.49;44.98;100538.44;5078800;28;1076;-41
2021/07/12 07:23:03;;;;;;;;;;;;;;;28.47;44.85;100530.53;5079807;28;894;-40
2021/07/12 07:25:28;;;;;;;;;;;;;;;28.48;45.15;100529.47;5079148;28;752;-40
2021/07/12 07:27:53;;;;;;;;;;;;;;;28.46;44.93;100539.66;5077717;28;885;-39
2021/07/12 07:30:19;;;;;;;;;;;;;;;28.47;44.94;100538.63;5077888;28;1956;-38
2021/07/12 07:32:44;;;;;;;;;;;;;;;28.44;44.94;100539.03;5078994;28;772;-41
2021/07/12 07:35:09;;;;;;;;;;;;;;;28.50;44.82;100531.97;5078770;28;1009;-40
2021/07/12 07:37:35;;;;;;;;;;;;;;;28.44;45.03;100533.63;5079092;28;796;-37
2021/07/12 07:40:00;;;;;;;;;;;;;;;28.47;44.88;100540.50;5078693;28;783;-39
2021/07/12 07:42:25;;;;;;;;;;;;;;;28.59;44.43;100533.47;5079162;28;760;-42
2021/07/12 07:44:51;;;;;;;;;;;;;;;28.55;44.69;100532.22;5078978;28;776;-42
2021/07/12 07:47:16;;;;;;;;;;;;;;;28.66;44.45;100532.72;5078602;28;732;-41
2021/07/12 07:49:41;;;;;;;;;;;;;;;28.62;44.41;100534.97;5078145;28;1901;-39
2021/07/12 07:52:06;;;;;;;;;;;;;;;28.79;43.93;100537.34;5079128;28;760;-32
2021/07/12 07:54:32;;;;;;;;;;;;;;;28.88;44.13;100536.16;5078544;28;878;-32
2021/07/12 07:56:57;;;;;;;;;;;;;;;28.90;43.59;100534.09;5078229;28;1043;-37
2021/07/12 07:59:22;;;;;;;;;;;;;;;28.84;43.97;100533.00;5079126;28;763;-38
2021/07/12 08:01:48;;;;;;;;;;;;;;;28.89;43.94;100526.16;5078700;28;819;-38
2021/07/12 08:04:13;;;;;;;;;;;;;;;28.95;43.74;100530.78;5077895;28;971;-36
2021/07/12 08:06:38;;;;;;;;;;;;;;;28.96;44.18;100538.69;5078523;28;736;-42
2021/07/12 08:09:04;;;;;;;;;;;;;;;29.04;43.94;100528.78;5078128;28;1918;-38
2021/07/12 08:11:29;;;;;;;;;;;;;;;28.96;44.21;100532.47;5078731;28;776;-38
2021/07/12 08:13:55;;;;;;;;;;;;;;;29.05;43.81;100530.44;5078682;28;847;-38
2021/07/12 08:16:20;;;;;;;;;;;;;;;29.18;43.98;100535.06;5078414;28;748;-37
2021/07/12 08:18:45;;;;;;;;;;;;;;;29.31;43.62;100529.69;5077264;28;955;-36
2021/07/12 08:21:13;;;;;;;;;;;;;;;29.19;43.71;100539.47;5078440;28;803;-36
2021/07/12 08:23:41;;;;;;;;;;;;;;;29.23;43.58;100531.75;5078689;28;792;-39
2021/07/12 08:26:06;;;;;;;;;;;;;;;29.35;43.44;100540.97;5078553;28;815;-39
2021/07/12 08:28:32;;;;;;;;;;;;;;;29.27;43.47;100543.84;5076931;28;1963;-36
2021/07/12 08:30:57;;;;;;;;;;;;;;;29.15;44.16;100539.03;5078209;28;894;-42
2021/07/12 08:33:23;;;;;;;;;;;;;;;29.23;43.90;100537.19;5077641;28;958;-36
2021/07/12 08:35:48;;;;;;;;;;;;;;;29.20;43.53;100538.41;5077279;28;931;-37
2021/07/12 08:38:13;;;;;;;;;;;;;;;29.08;43.60;100539.00;5077886;28;858;-41
2021/07/12 08:40:39;;;;;;;;;;;;;;;29.21;43.61;100540.91;5078162;28;767;-39
2021/07/12 08:43:04;;;;;;;;;;;;;;;29.20;43.41;100541.97;5076768;28;1100;-37
2021/07/12 08:45:29;;;;;;;;;;;;;;;29.20;43.89;100541.97;5078041;28;923;-39
2021/07/12 08:47:55;;;;;;;;;;;;;;;29.13;44.47;100538.38;5077529;28;826;-39
2021/07/12 08:50:20;;;;;;;;;;;;;;;29.13;44.66;100535.66;5077004;28;1959;-42
2021/07/12 08:52:46;;;;;;;;;;;;;;;29.17;44.19;100534.25;5077883;28;819;-41
2021/07/12 08:55:11;;;;;;;;;;;;;;;29.25;43.96;100529.66;5077445;28;1176;-37
2021/07/12 08:57:37;;;;;;;;;;;;;;;29.20;43.44;100535.69;5076775;28;796;-39
2021/07/12 09:00:02;;;;;;;;;;;;;;;29.09;43.96;100524.41;5077291;28;814;-38
2021/07/12 09:02:28;;;;;;;;;;;;;;;29.26;43.59;100528.66;5077647;28;736;-39
2021/07/12 09:04:54;;;;;;;;;;;;;;;29.24;43.52;100531.56;5076828;28;1511;-39
2021/07/12 09:07:21;;;;;;;;;;;;;;;29.24;43.74;100526.16;5077611;28;760;-39
2021/07/12 09:09:55;;;;;;;;;;;;;;;29.27;43.30;100524.88;5076913;28;1901;-36
2021/07/12 09:12:21;;;;;;;;;;;;;;;29.22;43.49;100528.22;5077648;28;833;-42
2021/07/12 09:14:59;;;;;;;;;;;;;;;29.28;43.24;100526.56;5077251;28;739;-41
2021/07/12 09:17:28;;;;;;;;;;;;;;;29.28;43.47;100532.81;5076846;28;772;-37
2021/07/12 09:19:53;;;;;;;;;;;;;;;29.30;43.57;100527.19;5076595;28;995;-38
2021/07/12 09:22:18;;;;;;;;;;;;;;;29.24;43.77;100530.72;5077320;28;847;-36
2021/07/12 09:25:04;;;;;;;;;;;;;;;29.29;43.86;100533.66;5076815;28;759;-39
2021/07/12 09:27:30;;;;;;;;;;;;;;;29.43;43.52;100539.94;5076676;28;831;-38
2021/07/12 09:30:05;;;;;;;;;;;;;;;29.54;43.16;100525.81;5076739;28;1898;-39
2021/07/12 09:32:31;;;;;;;;;;;;;;;29.55;43.75;100532.91;5076641;28;740;-39
2021/07/12 09:34:56;;;;;;;;;;;;;;;29.57;45.37;100527.25;5076640;28;1009;-44
2021/07/12 09:37:22;;;;;;;;;;;;;;;29.57;45.86;100538.94;5076880;28;787;-38
2021/07/12 09:39:50;;;;;;;;;;;;;;;29.68;45.83;100539.41;5073619;28;924;-39
2021/07/12 09:42:22;;;;;;;;;;;;;;;29.79;45.62;100546.94;5076243;28;801;-45
2021/07/12 09:45:07;;;;;;;;;;;;;;;29.83;45.36;100550.06;5076100;28;847;-45
2021/07/12 09:47:33;;;;;;;;;;;;;;;29.81;45.57;100560.28;5075944;28;1817;-38
2021/07/12 09:50:09;;;;;;;;;;;;;;;29.85;45.25;100544.44;5075880;28;1898;-41
2021/07/12 09:52:40;;;;;;;;;;;;;;;29.91;45.29;100547.16;5058576;28;896;-33
2021/07/12 09:55:06;;;;;;;;;;;;;;;29.89;44.76;100546.53;5076621;28;1197;-35
2021/07/12 09:57:31;;;;;;;;;;;;;;;29.81;45.44;100547.56;5076660;28;772;-34
2021/07/12 10:00:03;;;;;;;;;;;;;;;29.86;44.60;100549.66;5075353;28;1178;-39
2021/07/12 10:02:29;;;;;;;;;;;;;;;29.96;44.14;100549.25;5076298;28;820;-34
2021/07/12 10:04:59;;;;;;;;;;;;;;;29.88;44.08;100544.03;5075459;28;1010;-40
2021/07/12 10:07:24;;;;;;;;;;;;;;;29.97;43.67;100548.22;5076138;28;845;-39
2021/07/12 10:09:49;;;;;;;;;;;;;;;29.88;43.87;100542.13;5075018;28;1945;-41
2021/07/12 10:12:15;;;;;;;;;;;;;;;29.92;43.29;100548.84;5076282;28;814;-40
2021/07/12 10:14:40;;;;;;;;;;;;;;;29.95;42.97;100547.56;5076779;28;819;-44
2021/07/12 10:17:07;;;;;;;;;;;;;;;29.98;42.94;100546.34;5058156;28;744;-39
2021/07/12 10:19:32;;;;;;;;;;;;;;;29.95;42.81;100544.84;5075477;28;1005;-39
2021/07/12 10:21:58;;;;;;;;;;;;;;;29.73;40.20;100550.47;5076202;28;839;-38
2021/07/12 10:24:27;;;;;;;;;;;;;;;29.61;39.66;100544.84;5057795;28;824;-37
2021/07/12 10:26:52;;;;;;;;;;;;;;;29.80;40.63;100542.34;5076249;28;809;-42
2021/07/12 10:29:29;;;;;;;;;;;;;;;29.84;40.69;100549.03;5076046;28;1972;-42
2021/07/12 10:31:57;;;;;;;;;;;;;;;29.74;40.19;100543.16;5075750;28;837;-39
2021/07/12 10:34:52;;;;;;;;;;;;;;;29.80;40.04;100539.63;5075660;28;990;-38
2021/07/12 10:37:21;;;;;;;;;;;;;;;29.94;40.10;100544.03;5062848;28;1175;-38
2021/07/12 10:39:59;;;;;;;;;;;;;;;29.94;40.15;100545.91;5075596;28;842;-39
2021/07/12 10:42:43;;;;;;;;;;;;;;;29.97;40.22;100533.81;5075640;28;796;-39
2021/07/12 10:45:08;;;;;;;;;;;;;;;29.90;40.93;100537.34;5075654;28;1697;-40
2021/07/12 10:47:43;;;;;;;;;;;;;;;29.92;40.75;100538.00;5075834;28;489;-40
2021/07/12 10:50:41;;;;;;;;;;;;;;;29.92;40.10;100538.00;5075314;28;1902;-39
2021/07/12 10:53:15;;;;;;;;;;;;;;;29.78;39.02;100529.00;5041436;28;1379;-39
2021/07/12 10:55:44;;;;;;;;;;;;;;;29.80;39.32;100534.22;5075767;28;1325;-37
2021/07/12 10:58:21;;;;;;;;;;;;;;;29.77;39.50;100538.19;5076356;28;776;-39
2021/07/12 11:00:47;;;;;;;;;;;;;;;29.67;39.82;100541.28;5075685;28;763;-40
2021/07/12 11:03:31;;;;;;;;;;;;;;;29.74;40.34;100540.47;5075791;28;866;-39
2021/07/12 11:05:56;;;;;;;;;;;;;;;29.63;40.90;100541.91;5075984;28;1091;-40
2021/07/12 11:08:41;;;;;;;;;;;;;;;29.68;40.53;100542.09;5075032;28;2039;-40
2021/07/12 11:11:13;;;;;;;;;;;;;;;29.62;41.47;100546.50;5075787;28;764;-38
2021/07/12 11:13:54;;;;;;;;;;;;;;;29.66;41.24;100545.03;5076158;28;779;-42
2021/07/12 11:16:23;;;;;;;;;;;;;;;29.63;40.78;100544.63;5075743;28;809;-39
2021/07/12 11:18:49;;;;;;;;;;;;;;;29.61;40.95;100542.13;5075044;28;1006;-37
2021/07/12 11:21:15;;;;;;;;;;;;;;;29.60;41.78;100550.44;5060095;28;889;-40
2021/07/12 11:23:47;;;;;;;;;;;;;;;29.58;41.33;100553.31;5079123;28;819;-38
2021/07/12 11:26:23;;;;;;;;;;;;;;;29.63;41.07;100550.03;5079530;28;730;-41
2021/07/12 11:28:52;;;;;;;;;;;;;;;29.62;41.45;100565.47;5078643;28;1961;-41
2021/07/12 11:31:35;;;;;;;;;;;;;;;29.53;41.96;100566.66;5078976;28;815;-38
2021/07/12 11:34:01;;;;;;;;;;;;;;;29.24;40.48;100563.22;5078671;28;974;-42
2021/07/12 11:36:26;;;;;;;;;;;;;;;29.23;40.40;100562.38;5079186;28;835;-41
2021/07/12 11:38:51;;;;;;;;;;;;;;;29.18;40.99;100562.13;5061353;28;822;-38
2021/07/12 11:41:22;;;;;;;;;;;;;;;29.32;41.31;100552.22;5078988;28;784;-41
2021/07/12 11:43:47;;;;;;;;;;;;;;;29.35;40.48;100557.22;5079115;28;772;-41
2021/07/12 11:46:14;;;;;;;;;;;;;;;29.50;41.25;100561.63;5060972;28;1253;-42
2021/07/12 11:48:39;;;;;;;;;;;;;;;29.49;41.93;100560.81;5078117;28;1988;-39
2021/07/12 11:51:13;;;;;;;;;;;;;;;29.45;41.80;100557.69;5078831;28;808;-39
2021/07/12 11:53:38;;;;;;;;;;;;;;;29.44;42.05;100553.31;5078659;28;800;-42
2021/07/12 11:56:03;;;;;;;;;;;;;;;29.43;42.54;100540.78;5078205;28;1020;-41
2021/07/12 11:58:31;;;;;;;;;;;;;;;29.48;42.13;100542.88;5078695;28;779;-39
2021/07/12 12:00:57;;;;;;;;;;;;;;;29.64;41.66;100539.00;5078269;28;871;-41
2021/07/12 12:03:22;;;;;;;;;;;;;;;29.53;42.14;100536.84;5078164;28;891;-42
2021/07/12 12:05:47;;;;;;;;;;;;;;;29.55;41.75;100534.75;5078473;28;931;-42
2021/07/12 12:08:16;;;;;;;;;;;;;;;29.55;41.75;100532.91;5078239;28;775;-39
2021/07/12 12:10:41;;;;;;;;;;;;;;;29.46;41.95;100540.38;5077899;28;1910;-43
2021/07/12 12:13:13;;;;;;;;;;;;;;;29.57;41.13;100541.66;5078424;28;764;-39
2021/07/12 12:15:39;;;;;;;;;;;;;;;29.53;41.87;100550.41;5078258;28;740;-38
2021/07/12 12:18:05;;;;;;;;;;;;;;;29.48;42.38;100550.19;5078287;28;824;-42
2021/07/12 12:20:59;;;;;;;;;;;;;;;29.58;41.28;100548.75;5077937;28;939;-41
2021/07/12 12:23:28;;;;;;;;;;;;;;;29.54;42.04;100552.06;5078185;28;737;-38
2021/07/12 12:26:06;;;;;;;;;;;;;;;29.61;41.88;100558.38;5078205;28;803;-38
2021/07/12 12:28:46;;;;;;;;;;;;;;;29.61;42.06;100561.09;5077530;28;1902;-37
2021/07/12 12:31:15;;;;;;;;;;;;;;;29.51;42.80;100542.47;5060527;28;940;-42
2021/07/12 12:33:40;;;;;;;;;;;;;;;29.67;41.49;100551.28;5077153;28;1009;-41
2021/07/12 12:36:10;;;;;;;;;;;;;;;29.60;41.83;100545.00;5059805;28;896;-41
2021/07/12 12:38:35;;;;;;;;;;;;;;;29.51;42.62;100541.63;5077534;28;739;-42
2021/07/12 12:41:05;;;;;;;;;;;;;;;29.51;42.63;100549.78;5077833;28;814;-39
2021/07/12 12:43:30;;;;;;;;;;;;;;;29.51;42.76;100544.34;5077749;28;819;-39
2021/07/12 12:45:58;;;;;;;;;;;;;;;29.47;42.87;100535.78;5077766;28;783;-38
2021/07/12 12:48:29;;;;;;;;;;;;;;;29.72;42.73;100543.38;5059764;28;1232;-40
2021/07/12 12:50:54;;;;;;;;;;;;;;;29.82;42.92;100540.25;5076837;28;843;-39
2021/07/12 12:53:20;;;;;;;;;;;;;;;29.88;42.92;100544.03;5077517;28;811;-39